sensor_id;sensor_type;location;lat;lon;timestamp;temperature;humidity
1405;DHT22;697;51.114;6.542;2023-09-30T00:01:43;16.10;93.80
1405;DHT22;697;51.114;6.542;2023-09-30T00:04:11;16.10;93.80
1405;DHT22;697;51.114;6.542;2023-09-30T00:06:38;15.90;93.60
1405;DHT22;697;51.114;6.542;2023-09-30T00:09:05;15.90;93.50
1405;DHT22;697;51.114;6.542;2023-09-30T00:11:32;15.80;93.30
1405;DHT22;697;51.114;6.542;2023-09-30T00:14:00;15.70;93.30
1405;DHT22;697;51.114;6.542;2023-09-30T00:16:26;15.70;93.50
1405;DHT22;697;51.114;6.542;2023-09-30T00:18:53;15.60;93.60
1405;DHT22;697;51.114;6.542;2023-09-30T00:21:21;15.60;93.90
1405;DHT22;697;51.114;6.542;2023-09-30T00:23:48;15.60;94.20
1405;DHT22;697;51.114;6.542;2023-09-30T00:26:15;15.60;94.40
1405;DHT22;697;51.114;6.542;2023-09-30T00:28:41;15.60;94.40
1405;DHT22;697;51.114;6.542;2023-09-30T00:31:08;15.60;94.60
1405;DHT22;697;51.114;6.542;2023-09-30T00:33:36;15.60;94.90
1405;DHT22;697;51.114;6.542;2023-09-30T00:36:07;15.60;95.20
1405;DHT22;697;51.114;6.542;2023-09-30T00:38:36;15.70;95.40
1405;DHT22;697;51.114;6.542;2023-09-30T00:41:03;15.60;95.40
1405;DHT22;697;51.114;6.542;2023-09-30T00:43:30;15.60;95.40
1405;DHT22;697;51.114;6.542;2023-09-30T00:46:02;15.60;95.50
1405;DHT22;697;51.114;6.542;2023-09-30T00:48:32;15.60;95.60
1405;DHT22;697;51.114;6.542;2023-09-30T00:50:59;15.60;95.70
1405;DHT22;697;51.114;6.542;2023-09-30T00:53:26;15.60;95.90
1405;DHT22;697;51.114;6.542;2023-09-30T00:55:55;15.60;96.10
1405;DHT22;697;51.114;6.542;2023-09-30T00:58:23;15.60;96.10
1405;DHT22;697;51.114;6.542;2023-09-30T01:00:52;15.70;96.20
1405;DHT22;697;51.114;6.542;2023-09-30T01:03:19;15.70;96.20
1405;DHT22;697;51.114;6.542;2023-09-30T01:05:45;15.70;96.30
1405;DHT22;697;51.114;6.542;2023-09-30T01:08:12;15.70;96.30
1405;DHT22;697;51.114;6.542;2023-09-30T01:10:39;15.70;96.30
1405;DHT22;697;51.114;6.542;2023-09-30T01:13:07;15.70;96.30
1405;DHT22;697;51.114;6.542;2023-09-30T01:15:34;15.70;96.20
1405;DHT22;697;51.114;6.542;2023-09-30T01:18:02;15.70;96.30
1405;DHT22;697;51.114;6.542;2023-09-30T01:20:29;15.70;96.30
1405;DHT22;697;51.114;6.542;2023-09-30T01:22:58;15.70;96.20
1405;DHT22;697;51.114;6.542;2023-09-30T01:25:24;15.70;96.30
1405;DHT22;697;51.114;6.542;2023-09-30T01:27:51;15.70;96.30
1405;DHT22;697;51.114;6.542;2023-09-30T01:30:18;15.70;96.30
1405;DHT22;697;51.114;6.542;2023-09-30T01:32:45;15.70;96.30
1405;DHT22;697;51.114;6.542;2023-09-30T01:35:12;15.70;96.40
1405;DHT22;697;51.114;6.542;2023-09-30T01:37:39;15.70;96.50
1405;DHT22;697;51.114;6.542;2023-09-30T01:40:08;15.70;96.60
1405;DHT22;697;51.114;6.542;2023-09-30T01:42:37;15.70;96.70
1405;DHT22;697;51.114;6.542;2023-09-30T01:45:04;15.70;96.80
1405;DHT22;697;51.114;6.542;2023-09-30T01:47:31;15.70;96.80
1405;DHT22;697;51.114;6.542;2023-09-30T01:49:58;15.70;96.80
1405;DHT22;697;51.114;6.542;2023-09-30T01:52:25;15.70;96.60
1405;DHT22;697;51.114;6.542;2023-09-30T01:54:51;15.70;96.50
1405;DHT22;697;51.114;6.542;2023-09-30T01:57:20;15.60;96.40
1405;DHT22;697;51.114;6.542;2023-09-30T01:59:47;15.70;96.50
1405;DHT22;697;51.114;6.542;2023-09-30T02:02:14;15.60;96.40
1405;DHT22;697;51.114;6.542;2023-09-30T02:04:41;15.60;96.30
1405;DHT22;697;51.114;6.542;2023-09-30T02:07:09;15.60;96.30
1405;DHT22;697;51.114;6.542;2023-09-30T02:09:36;15.60;96.30
1405;DHT22;697;51.114;6.542;2023-09-30T02:12:03;15.60;96.30
1405;DHT22;697;51.114;6.542;2023-09-30T02:14:31;15.60;96.20
1405;DHT22;697;51.114;6.542;2023-09-30T02:16:58;15.60;96.20
1405;DHT22;697;51.114;6.542;2023-09-30T02:19:25;15.50;96.10
1405;DHT22;697;51.114;6.542;2023-09-30T02:21:53;15.50;96.00
1405;DHT22;697;51.114;6.542;2023-09-30T02:24:19;15.50;96.00
1405;DHT22;697;51.114;6.542;2023-09-30T02:26:47;15.50;96.00
1405;DHT22;697;51.114;6.542;2023-09-30T02:29:14;15.50;96.00
1405;DHT22;697;51.114;6.542;2023-09-30T02:31:42;15.40;96.00
1405;DHT22;697;51.114;6.542;2023-09-30T02:34:08;15.40;96.00
1405;DHT22;697;51.114;6.542;2023-09-30T02:36:35;15.40;95.90
1405;DHT22;697;51.114;6.542;2023-09-30T02:39:04;15.40;96.00
1405;DHT22;697;51.114;6.542;2023-09-30T02:41:34;15.40;96.00
1405;DHT22;697;51.114;6.542;2023-09-30T02:44:01;15.40;96.00
1405;DHT22;697;51.114;6.542;2023-09-30T02:46:27;15.40;95.90
1405;DHT22;697;51.114;6.542;2023-09-30T02:48:55;15.40;95.90
1405;DHT22;697;51.114;6.542;2023-09-30T02:51:22;15.30;95.80
1405;DHT22;697;51.114;6.542;2023-09-30T02:53:50;15.30;95.80
1405;DHT22;697;51.114;6.542;2023-09-30T02:56:17;15.30;95.90
1405;DHT22;697;51.114;6.542;2023-09-30T02:58:45;15.30;95.90
1405;DHT22;697;51.114;6.542;2023-09-30T03:01:14;15.30;95.90
1405;DHT22;697;51.114;6.542;2023-09-30T03:03:42;15.30;96.00
1405;DHT22;697;51.114;6.542;2023-09-30T03:06:11;15.20;96.00
1405;DHT22;697;51.114;6.542;2023-09-30T03:08:38;15.30;96.20
1405;DHT22;697;51.114;6.542;2023-09-30T03:11:06;15.20;96.20
1405;DHT22;697;51.114;6.542;2023-09-30T03:13:33;15.20;96.30
1405;DHT22;697;51.114;6.542;2023-09-30T03:16:00;15.20;96.30
1405;DHT22;697;51.114;6.542;2023-09-30T03:18:27;15.20;96.70
1405;DHT22;697;51.114;6.542;2023-09-30T03:20:59;15.20;97.00
1405;DHT22;697;51.114;6.542;2023-09-30T03:23:28;15.20;96.90
1405;DHT22;697;51.114;6.542;2023-09-30T03:25:56;15.20;96.80
1405;DHT22;697;51.114;6.542;2023-09-30T03:28:23;15.10;97.30
1405;DHT22;697;51.114;6.542;2023-09-30T03:30:50;15.10;97.50
1405;DHT22;697;51.114;6.542;2023-09-30T03:33:16;15.20;97.90
1405;DHT22;697;51.114;6.542;2023-09-30T03:35:43;15.20;97.80
1405;DHT22;697;51.114;6.542;2023-09-30T03:38:10;15.10;97.60
1405;DHT22;697;51.114;6.542;2023-09-30T03:40:39;15.10;97.40
1405;DHT22;697;51.114;6.542;2023-09-30T03:43:13;15.10;97.20
1405;DHT22;697;51.114;6.542;2023-09-30T03:45:40;15.10;97.10
1405;DHT22;697;51.114;6.542;2023-09-30T03:48:07;15.10;96.90
1405;DHT22;697;51.114;6.542;2023-09-30T03:50:35;15.10;96.80
1405;DHT22;697;51.114;6.542;2023-09-30T03:53:03;15.10;96.80
1405;DHT22;697;51.114;6.542;2023-09-30T03:55:32;15.10;96.80
1405;DHT22;697;51.114;6.542;2023-09-30T03:58:00;15.10;96.80
1405;DHT22;697;51.114;6.542;2023-09-30T04:00:28;15.00;96.60
1405;DHT22;697;51.114;6.542;2023-09-30T04:02:55;15.10;96.60
1405;DHT22;697;51.114;6.542;2023-09-30T04:05:24;15.00;96.50
1405;DHT22;697;51.114;6.542;2023-09-30T04:07:55;15.00;96.40
1405;DHT22;697;51.114;6.542;2023-09-30T04:10:22;15.00;96.50
1405;DHT22;697;51.114;6.542;2023-09-30T04:12:49;15.00;96.50
1405;DHT22;697;51.114;6.542;2023-09-30T04:15:17;14.90;96.40
1405;DHT22;697;51.114;6.542;2023-09-30T04:17:44;14.90;96.40
1405;DHT22;697;51.114;6.542;2023-09-30T04:20:11;14.90;96.50
1405;DHT22;697;51.114;6.542;2023-09-30T04:22:42;14.90;96.80
1405;DHT22;697;51.114;6.542;2023-09-30T04:25:11;15.00;97.20
1405;DHT22;697;51.114;6.542;2023-09-30T04:27:38;15.00;97.10
1405;DHT22;697;51.114;6.542;2023-09-30T04:30:06;15.00;97.40
1405;DHT22;697;51.114;6.542;2023-09-30T04:32:36;15.00;97.10
1405;DHT22;697;51.114;6.542;2023-09-30T04:35:04;15.00;97.60
1405;DHT22;697;51.114;6.542;2023-09-30T04:37:31;14.90;97.50
1405;DHT22;697;51.114;6.542;2023-09-30T04:39:57;14.90;97.20
1405;DHT22;697;51.114;6.542;2023-09-30T04:42:24;14.90;96.90
1405;DHT22;697;51.114;6.542;2023-09-30T04:44:51;14.80;96.60
1405;DHT22;697;51.114;6.542;2023-09-30T04:47:18;14.80;96.50
1405;DHT22;697;51.114;6.542;2023-09-30T04:49:46;14.80;96.40
1405;DHT22;697;51.114;6.542;2023-09-30T04:52:13;14.80;96.70
1405;DHT22;697;51.114;6.542;2023-09-30T04:54:39;14.80;96.30
1405;DHT22;697;51.114;6.542;2023-09-30T04:57:06;14.80;96.30
1405;DHT22;697;51.114;6.542;2023-09-30T04:59:33;14.80;96.40
1405;DHT22;697;51.114;6.542;2023-09-30T05:02:00;14.80;96.50
1405;DHT22;697;51.114;6.542;2023-09-30T05:04:27;14.80;96.60
1405;DHT22;697;51.114;6.542;2023-09-30T05:06:56;14.80;96.60
1405;DHT22;697;51.114;6.542;2023-09-30T05:09:23;14.80;96.70
1405;DHT22;697;51.114;6.542;2023-09-30T05:11:51;14.80;96.70
1405;DHT22;697;51.114;6.542;2023-09-30T05:14:19;14.70;96.60
1405;DHT22;697;51.114;6.542;2023-09-30T05:16:46;14.70;96.40
1405;DHT22;697;51.114;6.542;2023-09-30T05:19:13;14.70;96.40
1405;DHT22;697;51.114;6.542;2023-09-30T05:21:40;14.60;96.30
1405;DHT22;697;51.114;6.542;2023-09-30T05:24:08;14.60;96.30
1405;DHT22;697;51.114;6.542;2023-09-30T05:26:36;14.60;96.30
1405;DHT22;697;51.114;6.542;2023-09-30T05:29:03;14.60;96.20
1405;DHT22;697;51.114;6.542;2023-09-30T05:31:29;14.60;96.20
1405;DHT22;697;51.114;6.542;2023-09-30T05:33:56;14.60;96.10
1405;DHT22;697;51.114;6.542;2023-09-30T05:36:23;14.60;96.10
1405;DHT22;697;51.114;6.542;2023-09-30T05:38:49;14.50;96.10
1405;DHT22;697;51.114;6.542;2023-09-30T05:41:17;14.50;96.10
1405;DHT22;697;51.114;6.542;2023-09-30T05:43:46;14.50;96.10
1405;DHT22;697;51.114;6.542;2023-09-30T05:46:13;14.50;96.20
1405;DHT22;697;51.114;6.542;2023-09-30T05:48:40;14.50;96.20
1405;DHT22;697;51.114;6.542;2023-09-30T05:51:07;14.50;96.10
1405;DHT22;697;51.114;6.542;2023-09-30T05:53:33;14.50;96.10
1405;DHT22;697;51.114;6.542;2023-09-30T05:56:01;14.50;96.10
1405;DHT22;697;51.114;6.542;2023-09-30T05:58:30;14.50;96.30
1405;DHT22;697;51.114;6.542;2023-09-30T06:00:57;14.50;96.70
1405;DHT22;697;51.114;6.542;2023-09-30T06:03:25;14.50;96.50
1405;DHT22;697;51.114;6.542;2023-09-30T06:05:54;14.50;96.50
1405;DHT22;697;51.114;6.542;2023-09-30T06:08:21;14.50;96.60
1405;DHT22;697;51.114;6.542;2023-09-30T06:10:48;14.50;96.60
1405;DHT22;697;51.114;6.542;2023-09-30T06:13:15;14.50;96.80
1405;DHT22;697;51.114;6.542;2023-09-30T06:15:43;14.50;96.80
1405;DHT22;697;51.114;6.542;2023-09-30T06:18:12;14.50;96.80
1405;DHT22;697;51.114;6.542;2023-09-30T06:20:40;14.50;96.80
1405;DHT22;697;51.114;6.542;2023-09-30T06:23:07;14.50;97.10
1405;DHT22;697;51.114;6.542;2023-09-30T06:25:35;14.50;96.80
1405;DHT22;697;51.114;6.542;2023-09-30T06:28:02;14.50;96.80
1405;DHT22;697;51.114;6.542;2023-09-30T06:30:29;14.50;96.90
1405;DHT22;697;51.114;6.542;2023-09-30T06:33:00;14.50;97.10
1405;DHT22;697;51.114;6.542;2023-09-30T06:35:26;14.50;97.20
1405;DHT22;697;51.114;6.542;2023-09-30T06:37:55;14.50;97.30
1405;DHT22;697;51.114;6.542;2023-09-30T06:40:22;14.60;97.60
1405;DHT22;697;51.114;6.542;2023-09-30T06:42:49;14.60;97.80
1405;DHT22;697;51.114;6.542;2023-09-30T06:45:15;14.60;97.80
1405;DHT22;697;51.114;6.542;2023-09-30T06:47:42;14.70;98.00
1405;DHT22;697;51.114;6.542;2023-09-30T06:50:13;14.70;98.00
1405;DHT22;697;51.114;6.542;2023-09-30T06:52:42;14.70;98.20
1405;DHT22;697;51.114;6.542;2023-09-30T06:55:11;14.80;98.40
1405;DHT22;697;51.114;6.542;2023-09-30T06:57:40;14.80;98.50
1405;DHT22;697;51.114;6.542;2023-09-30T07:00:07;14.90;98.70
1405;DHT22;697;51.114;6.542;2023-09-30T07:02:35;15.00;98.80
1405;DHT22;697;51.114;6.542;2023-09-30T07:05:02;15.00;98.80
1405;DHT22;697;51.114;6.542;2023-09-30T07:07:31;15.10;99.00
1405;DHT22;697;51.114;6.542;2023-09-30T07:09:58;15.30;99.40
1405;DHT22;697;51.114;6.542;2023-09-30T07:12:25;15.30;99.80
1405;DHT22;697;51.114;6.542;2023-09-30T07:14:51;15.40;99.90
1405;DHT22;697;51.114;6.542;2023-09-30T07:17:19;15.50;99.90
1405;DHT22;697;51.114;6.542;2023-09-30T07:19:46;15.60;99.90
1405;DHT22;697;51.114;6.542;2023-09-30T07:22:12;15.60;99.90
1405;DHT22;697;51.114;6.542;2023-09-30T07:24:40;15.70;99.90
1405;DHT22;697;51.114;6.542;2023-09-30T07:27:07;15.80;99.90
1405;DHT22;697;51.114;6.542;2023-09-30T07:29:33;15.90;99.90
1405;DHT22;697;51.114;6.542;2023-09-30T07:32:00;15.90;99.90
1405;DHT22;697;51.114;6.542;2023-09-30T07:34:27;16.00;99.90
1405;DHT22;697;51.114;6.542;2023-09-30T07:36:53;16.00;99.90
1405;DHT22;697;51.114;6.542;2023-09-30T07:39:21;16.10;99.90
1405;DHT22;697;51.114;6.542;2023-09-30T07:41:49;16.20;99.90
1405;DHT22;697;51.114;6.542;2023-09-30T07:44:15;16.20;99.90
1405;DHT22;697;51.114;6.542;2023-09-30T07:46:42;16.30;99.90
1405;DHT22;697;51.114;6.542;2023-09-30T07:49:10;16.40;99.90
1405;DHT22;697;51.114;6.542;2023-09-30T07:51:37;16.40;99.90
1405;DHT22;697;51.114;6.542;2023-09-30T07:54:05;16.40;99.90
1405;DHT22;697;51.114;6.542;2023-09-30T07:56:32;16.50;99.90
1405;DHT22;697;51.114;6.542;2023-09-30T07:59:00;16.60;99.90
1405;DHT22;697;51.114;6.542;2023-09-30T08:01:28;16.70;99.90
1405;DHT22;697;51.114;6.542;2023-09-30T08:03:55;16.70;99.90
1405;DHT22;697;51.114;6.542;2023-09-30T08:06:22;16.80;99.90
1405;DHT22;697;51.114;6.542;2023-09-30T08:08:49;16.80;99.90
1405;DHT22;697;51.114;6.542;2023-09-30T08:11:17;16.90;99.90
1405;DHT22;697;51.114;6.542;2023-09-30T08:13:46;17.00;99.80
1405;DHT22;697;51.114;6.542;2023-09-30T08:16:14;17.10;99.50
1405;DHT22;697;51.114;6.542;2023-09-30T08:18:41;17.20;99.40
1405;DHT22;697;51.114;6.542;2023-09-30T08:21:09;17.30;99.20
1405;DHT22;697;51.114;6.542;2023-09-30T08:23:36;17.40;99.10
1405;DHT22;697;51.114;6.542;2023-09-30T08:26:04;17.40;99.20
1405;DHT22;697;51.114;6.542;2023-09-30T08:28:31;17.50;98.60
1405;DHT22;697;51.114;6.542;2023-09-30T08:31:02;17.50;98.50
1405;DHT22;697;51.114;6.542;2023-09-30T08:33:30;17.60;98.40
1405;DHT22;697;51.114;6.542;2023-09-30T08:36:00;17.70;98.30
1405;DHT22;697;51.114;6.542;2023-09-30T08:38:32;17.70;97.90
1405;DHT22;697;51.114;6.542;2023-09-30T08:40:59;17.80;97.90
1405;DHT22;697;51.114;6.542;2023-09-30T08:43:28;17.80;98.40
1405;DHT22;697;51.114;6.542;2023-09-30T08:45:56;17.90;98.20
1405;DHT22;697;51.114;6.542;2023-09-30T08:48:23;18.00;98.20
1405;DHT22;697;51.114;6.542;2023-09-30T08:50:53;18.10;97.80
1405;DHT22;697;51.114;6.542;2023-09-30T08:53:21;18.10;97.30
1405;DHT22;697;51.114;6.542;2023-09-30T08:55:53;18.20;97.20
1405;DHT22;697;51.114;6.542;2023-09-30T08:58:20;18.30;96.90
1405;DHT22;697;51.114;6.542;2023-09-30T09:00:50;18.40;96.60
1405;DHT22;697;51.114;6.542;2023-09-30T09:03:18;18.40;96.20
1405;DHT22;697;51.114;6.542;2023-09-30T09:05:45;18.50;96.00
1405;DHT22;697;51.114;6.542;2023-09-30T09:08:13;18.60;95.70
1405;DHT22;697;51.114;6.542;2023-09-30T09:10:53;18.70;95.70
1405;DHT22;697;51.114;6.542;2023-09-30T09:13:21;18.80;94.40
1405;DHT22;697;51.114;6.542;2023-09-30T09:15:48;18.80;94.40
1405;DHT22;697;51.114;6.542;2023-09-30T09:18:31;19.00;94.70
1405;DHT22;697;51.114;6.542;2023-09-30T09:21:07;19.10;93.90
1405;DHT22;697;51.114;6.542;2023-09-30T09:23:40;19.10;93.80
1405;DHT22;697;51.114;6.542;2023-09-30T09:26:08;19.20;93.90
1405;DHT22;697;51.114;6.542;2023-09-30T09:28:35;19.40;94.10
1405;DHT22;697;51.114;6.542;2023-09-30T09:31:19;19.50;93.90
1405;DHT22;697;51.114;6.542;2023-09-30T09:33:47;19.70;93.70
1405;DHT22;697;51.114;6.542;2023-09-30T09:36:14;19.90;92.30
1405;DHT22;697;51.114;6.542;2023-09-30T09:38:47;20.10;91.50
1405;DHT22;697;51.114;6.542;2023-09-30T09:41:15;20.20;90.80
1405;DHT22;697;51.114;6.542;2023-09-30T09:43:42;20.50;90.10
1405;DHT22;697;51.114;6.542;2023-09-30T09:46:10;20.70;88.70
1405;DHT22;697;51.114;6.542;2023-09-30T09:48:37;20.90;86.60
1405;DHT22;697;51.114;6.542;2023-09-30T09:51:05;21.10;82.70
1405;DHT22;697;51.114;6.542;2023-09-30T09:53:35;21.40;80.40
1405;DHT22;697;51.114;6.542;2023-09-30T09:56:04;21.50;78.60
1405;DHT22;697;51.114;6.542;2023-09-30T09:58:33;21.70;78.80
1405;DHT22;697;51.114;6.542;2023-09-30T10:01:01;22.00;76.60
1405;DHT22;697;51.114;6.542;2023-09-30T10:03:27;22.30;76.20
1405;DHT22;697;51.114;6.542;2023-09-30T10:05:54;22.60;74.30
1405;DHT22;697;51.114;6.542;2023-09-30T10:08:29;22.90;72.50
1405;DHT22;697;51.114;6.542;2023-09-30T10:10:57;23.10;71.40
1405;DHT22;697;51.114;6.542;2023-09-30T10:13:51;23.40;69.60
1405;DHT22;697;51.114;6.542;2023-09-30T10:16:46;23.50;68.60
1405;DHT22;697;51.114;6.542;2023-09-30T10:19:14;23.30;68.50
1405;DHT22;697;51.114;6.542;2023-09-30T10:22:21;23.30;67.90
1405;DHT22;697;51.114;6.542;2023-09-30T10:24:50;23.80;65.70
1405;DHT22;697;51.114;6.542;2023-09-30T10:27:38;24.30;62.40
1405;DHT22;697;51.114;6.542;2023-09-30T10:30:10;25.10;59.30
1405;DHT22;697;51.114;6.542;2023-09-30T10:33:12;25.50;56.40
1405;DHT22;697;51.114;6.542;2023-09-30T10:35:46;26.10;55.80
1405;DHT22;697;51.114;6.542;2023-09-30T10:38:38;26.70;54.40
1405;DHT22;697;51.114;6.542;2023-09-30T10:41:08;27.50;52.50
1405;DHT22;697;51.114;6.542;2023-09-30T10:43:37;28.20;50.30
1405;DHT22;697;51.114;6.542;2023-09-30T10:46:31;28.60;47.30
1405;DHT22;697;51.114;6.542;2023-09-30T10:49:17;28.70;46.10
1405;DHT22;697;51.114;6.542;2023-09-30T10:51:58;29.00;46.60
1405;DHT22;697;51.114;6.542;2023-09-30T10:54:26;29.40;44.80
1405;DHT22;697;51.114;6.542;2023-09-30T10:56:53;29.70;43.80
1405;DHT22;697;51.114;6.542;2023-09-30T10:59:21;30.20;42.70
1405;DHT22;697;51.114;6.542;2023-09-30T11:01:49;30.50;41.60
1405;DHT22;697;51.114;6.542;2023-09-30T11:04:16;31.00;41.20
1405;DHT22;697;51.114;6.542;2023-09-30T11:06:44;31.30;40.20
1405;DHT22;697;51.114;6.542;2023-09-30T11:09:15;31.70;39.60
1405;DHT22;697;51.114;6.542;2023-09-30T11:11:44;31.90;37.90
1405;DHT22;697;51.114;6.542;2023-09-30T11:14:18;32.00;37.40
1405;DHT22;697;51.114;6.542;2023-09-30T11:16:46;32.00;37.30
1405;DHT22;697;51.114;6.542;2023-09-30T11:19:14;31.60;38.00
1405;DHT22;697;51.114;6.542;2023-09-30T11:21:42;30.80;38.70
1405;DHT22;697;51.114;6.542;2023-09-30T11:24:10;29.80;40.20
1405;DHT22;697;51.114;6.542;2023-09-30T11:26:37;28.90;42.30
1405;DHT22;697;51.114;6.542;2023-09-30T11:29:07;28.20;43.90
1405;DHT22;697;51.114;6.542;2023-09-30T11:31:37;27.90;45.00
1405;DHT22;697;51.114;6.542;2023-09-30T11:34:04;27.70;44.90
1405;DHT22;697;51.114;6.542;2023-09-30T11:36:35;27.30;45.60
1405;DHT22;697;51.114;6.542;2023-09-30T11:39:02;26.80;46.30
1405;DHT22;697;51.114;6.542;2023-09-30T11:41:36;26.20;47.40
1405;DHT22;697;51.114;6.542;2023-09-30T11:44:06;25.70;48.60
1405;DHT22;697;51.114;6.542;2023-09-30T11:46:47;25.20;49.90
1405;DHT22;697;51.114;6.542;2023-09-30T11:49:24;24.90;51.90
1405;DHT22;697;51.114;6.542;2023-09-30T11:51:54;24.50;52.40
1405;DHT22;697;51.114;6.542;2023-09-30T11:54:21;24.20;52.90
1405;DHT22;697;51.114;6.542;2023-09-30T11:56:48;24.10;53.70
1405;DHT22;697;51.114;6.542;2023-09-30T11:59:16;24.40;53.50
1405;DHT22;697;51.114;6.542;2023-09-30T12:01:45;25.20;49.40
1405;DHT22;697;51.114;6.542;2023-09-30T12:04:14;26.20;46.40
1405;DHT22;697;51.114;6.542;2023-09-30T12:06:42;27.30;45.60
1405;DHT22;697;51.114;6.542;2023-09-30T12:09:10;28.40;42.90
1405;DHT22;697;51.114;6.542;2023-09-30T12:11:40;29.10;40.60
1405;DHT22;697;51.114;6.542;2023-09-30T12:14:10;29.90;40.00
1405;DHT22;697;51.114;6.542;2023-09-30T12:16:37;30.70;40.10
1405;DHT22;697;51.114;6.542;2023-09-30T12:19:04;31.30;37.90
1405;DHT22;697;51.114;6.542;2023-09-30T12:21:31;31.90;34.20
1405;DHT22;697;51.114;6.542;2023-09-30T12:23:59;32.50;33.10
1405;DHT22;697;51.114;6.542;2023-09-30T12:26:28;32.90;30.30
1405;DHT22;697;51.114;6.542;2023-09-30T12:28:55;33.40;30.10
1405;DHT22;697;51.114;6.542;2023-09-30T12:31:22;33.60;28.70
1405;DHT22;697;51.114;6.542;2023-09-30T12:33:49;33.60;29.20
1405;DHT22;697;51.114;6.542;2023-09-30T12:36:17;33.80;29.30
1405;DHT22;697;51.114;6.542;2023-09-30T12:38:44;34.00;28.20
1405;DHT22;697;51.114;6.542;2023-09-30T12:41:11;34.20;28.40
1405;DHT22;697;51.114;6.542;2023-09-30T12:43:39;34.10;28.60
1405;DHT22;697;51.114;6.542;2023-09-30T12:46:07;34.30;29.00
1405;DHT22;697;51.114;6.542;2023-09-30T12:48:34;34.30;28.50
1405;DHT22;697;51.114;6.542;2023-09-30T12:51:01;34.30;29.10
1405;DHT22;697;51.114;6.542;2023-09-30T12:53:29;33.90;28.70
1405;DHT22;697;51.114;6.542;2023-09-30T12:55:56;33.90;30.10
1405;DHT22;697;51.114;6.542;2023-09-30T12:58:23;34.20;29.60
1405;DHT22;697;51.114;6.542;2023-09-30T13:00:51;34.50;29.60
1405;DHT22;697;51.114;6.542;2023-09-30T13:03:17;34.80;28.20
1405;DHT22;697;51.114;6.542;2023-09-30T13:05:45;34.90;27.40
1405;DHT22;697;51.114;6.542;2023-09-30T13:08:11;34.30;27.70
1405;DHT22;697;51.114;6.542;2023-09-30T13:10:38;33.60;28.80
1405;DHT22;697;51.114;6.542;2023-09-30T13:13:05;32.90;29.60
1405;DHT22;697;51.114;6.542;2023-09-30T13:15:32;32.50;30.80
1405;DHT22;697;51.114;6.542;2023-09-30T13:18:01;32.50;33.30
1405;DHT22;697;51.114;6.542;2023-09-30T13:20:28;32.70;32.00
1405;DHT22;697;51.114;6.542;2023-09-30T13:22:55;32.70;30.70
1405;DHT22;697;51.114;6.542;2023-09-30T13:25:22;32.90;32.50
1405;DHT22;697;51.114;6.542;2023-09-30T13:27:49;32.90;31.50
1405;DHT22;697;51.114;6.542;2023-09-30T13:30:16;32.60;31.90
1405;DHT22;697;51.114;6.542;2023-09-30T13:32:43;32.40;32.40
1405;DHT22;697;51.114;6.542;2023-09-30T13:35:13;32.40;32.20
1405;DHT22;697;51.114;6.542;2023-09-30T13:37:40;32.60;32.90
1405;DHT22;697;51.114;6.542;2023-09-30T13:40:08;32.50;32.60
1405;DHT22;697;51.114;6.542;2023-09-30T13:42:37;32.40;33.70
1405;DHT22;697;51.114;6.542;2023-09-30T13:45:04;32.10;34.50
1405;DHT22;697;51.114;6.542;2023-09-30T13:47:31;31.70;34.80
1405;DHT22;697;51.114;6.542;2023-09-30T13:49:58;31.20;35.90
1405;DHT22;697;51.114;6.542;2023-09-30T13:52:26;30.70;36.60
1405;DHT22;697;51.114;6.542;2023-09-30T13:54:53;30.30;38.00
1405;DHT22;697;51.114;6.542;2023-09-30T13:57:21;30.00;36.50
1405;DHT22;697;51.114;6.542;2023-09-30T13:59:47;29.80;36.60
1405;DHT22;697;51.114;6.542;2023-09-30T14:02:14;29.50;37.10
1405;DHT22;697;51.114;6.542;2023-09-30T14:04:41;29.30;37.40
1405;DHT22;697;51.114;6.542;2023-09-30T14:07:07;29.10;37.00
1405;DHT22;697;51.114;6.542;2023-09-30T14:09:35;28.80;37.40
1405;DHT22;697;51.114;6.542;2023-09-30T14:12:03;28.70;38.20
1405;DHT22;697;51.114;6.542;2023-09-30T14:14:31;28.70;38.80
1405;DHT22;697;51.114;6.542;2023-09-30T14:16:59;28.60;39.70
1405;DHT22;697;51.114;6.542;2023-09-30T14:19:32;28.50;40.10
1405;DHT22;697;51.114;6.542;2023-09-30T14:21:59;28.20;37.20
1405;DHT22;697;51.114;6.542;2023-09-30T14:24:26;28.00;38.20
1405;DHT22;697;51.114;6.542;2023-09-30T14:26:54;27.80;39.20
1405;DHT22;697;51.114;6.542;2023-09-30T14:29:21;27.70;40.40
1405;DHT22;697;51.114;6.542;2023-09-30T14:31:47;27.60;40.50
1405;DHT22;697;51.114;6.542;2023-09-30T14:34:14;27.70;42.10
1405;DHT22;697;51.114;6.542;2023-09-30T14:36:41;27.80;41.50
1405;DHT22;697;51.114;6.542;2023-09-30T14:39:07;28.10;42.80
1405;DHT22;697;51.114;6.542;2023-09-30T14:41:35;28.50;40.50
1405;DHT22;697;51.114;6.542;2023-09-30T14:44:03;28.80;39.00
1405;DHT22;697;51.114;6.542;2023-09-30T14:46:33;29.30;40.70
1405;DHT22;697;51.114;6.542;2023-09-30T14:49:00;29.70;40.50
1405;DHT22;697;51.114;6.542;2023-09-30T14:51:26;30.10;39.40
1405;DHT22;697;51.114;6.542;2023-09-30T14:53:53;30.20;37.70
1405;DHT22;697;51.114;6.542;2023-09-30T14:56:20;30.20;38.50
1405;DHT22;697;51.114;6.542;2023-09-30T14:58:47;29.90;36.00
1405;DHT22;697;51.114;6.542;2023-09-30T15:01:14;29.60;37.40
1405;DHT22;697;51.114;6.542;2023-09-30T15:03:41;29.40;38.60
1405;DHT22;697;51.114;6.542;2023-09-30T15:06:09;29.20;38.30
1405;DHT22;697;51.114;6.542;2023-09-30T15:08:36;29.00;38.40
1405;DHT22;697;51.114;6.542;2023-09-30T15:11:03;28.80;38.10
1405;DHT22;697;51.114;6.542;2023-09-30T15:13:29;28.50;38.30
1405;DHT22;697;51.114;6.542;2023-09-30T15:15:56;28.30;38.90
1405;DHT22;697;51.114;6.542;2023-09-30T15:18:24;28.00;39.20
1405;DHT22;697;51.114;6.542;2023-09-30T15:20:51;27.70;41.40
1405;DHT22;697;51.114;6.542;2023-09-30T15:23:17;27.40;42.80
1405;DHT22;697;51.114;6.542;2023-09-30T15:25:44;27.10;43.90
1405;DHT22;697;51.114;6.542;2023-09-30T15:28:11;26.90;44.60
1405;DHT22;697;51.114;6.542;2023-09-30T15:30:38;26.70;45.60
1405;DHT22;697;51.114;6.542;2023-09-30T15:33:05;26.40;46.60
1405;DHT22;697;51.114;6.542;2023-09-30T15:35:33;26.30;46.80
1405;DHT22;697;51.114;6.542;2023-09-30T15:38:00;26.10;47.40
1405;DHT22;697;51.114;6.542;2023-09-30T15:40:27;26.00;48.10
1405;DHT22;697;51.114;6.542;2023-09-30T15:42:53;25.90;48.90
1405;DHT22;697;51.114;6.542;2023-09-30T15:45:20;25.80;49.80
1405;DHT22;697;51.114;6.542;2023-09-30T15:47:47;25.70;50.50
1405;DHT22;697;51.114;6.542;2023-09-30T15:50:13;25.60;51.10
1405;DHT22;697;51.114;6.542;2023-09-30T15:52:42;25.50;51.60
1405;DHT22;697;51.114;6.542;2023-09-30T15:55:10;25.40;51.80
1405;DHT22;697;51.114;6.542;2023-09-30T15:57:36;25.30;51.10
1405;DHT22;697;51.114;6.542;2023-09-30T16:00:09;25.20;51.00
1405;DHT22;697;51.114;6.542;2023-09-30T16:02:36;25.10;52.00
1405;DHT22;697;51.114;6.542;2023-09-30T16:05:03;24.90;52.00
1405;DHT22;697;51.114;6.542;2023-09-30T16:07:29;24.80;51.70
1405;DHT22;697;51.114;6.542;2023-09-30T16:09:57;24.70;52.00
1405;DHT22;697;51.114;6.542;2023-09-30T16:12:24;24.50;52.40
1405;DHT22;697;51.114;6.542;2023-09-30T16:14:51;24.40;53.00
1405;DHT22;697;51.114;6.542;2023-09-30T16:17:18;24.30;53.60
1405;DHT22;697;51.114;6.542;2023-09-30T16:19:45;24.10;54.20
1405;DHT22;697;51.114;6.542;2023-09-30T16:22:11;24.00;54.70
1405;DHT22;697;51.114;6.542;2023-09-30T16:24:38;23.80;55.30